createdAt,value
2018-06-02T00:01:42.428Z,3.87
2018-06-02T00:04:09.943Z,4.23
2018-06-02T00:06:37.424Z,4.80
2018-06-02T00:09:05.870Z,5.00
2018-06-02T00:11:34.184Z,4.77
2018-06-02T00:14:01.771Z,5.63
2018-06-02T00:16:30.055Z,4.00
2018-06-02T00:18:57.556Z,4.80
2018-06-02T00:21:25.807Z,4.30
2018-06-02T00:23:53.318Z,4.83
2018-06-02T00:26:20.906Z,4.30
2018-06-02T00:28:48.421Z,6.10
2018-06-02T00:31:15.902Z,4.33
2018-06-02T00:33:43.439Z,4.17
2018-06-02T00:36:10.927Z,4.90
2018-06-02T00:38:38.516Z,3.50
2018-06-02T00:41:06.046Z,3.30
2018-06-02T00:43:33.533Z,3.30
2018-06-02T00:46:01.067Z,3.23
2018-06-02T00:48:28.551Z,3.83
2018-06-02T00:50:56.061Z,4.07
2018-06-02T00:53:24.310Z,4.40
2018-06-02T00:55:52.027Z,3.57
2018-06-02T00:58:19.515Z,3.07
2018-06-02T01:00:47.042Z,4.00
2018-06-02T01:03:14.542Z,2.83
2018-06-02T01:05:42.075Z,2.70
2018-06-02T01:08:10.336Z,2.60
2018-06-02T01:10:37.843Z,2.67
2018-06-02T01:13:05.323Z,3.80
2018-06-02T01:15:32.907Z,3.40
2018-06-02T01:18:00.397Z,3.80
2018-06-02T01:20:27.904Z,3.50
2018-06-02T01:22:56.156Z,3.20
2018-06-02T01:25:23.727Z,2.90
2018-06-02T01:27:51.207Z,2.93
2018-06-02T01:30:18.719Z,3.20
2018-06-02T01:32:46.203Z,3.00
2018-06-02T01:35:13.720Z,5.83
2018-06-02T01:37:41.976Z,3.50
2018-06-02T01:40:09.504Z,3.23
2018-06-02T01:42:37.782Z,3.17
2018-06-02T01:45:05.300Z,3.50
2018-06-02T01:47:32.797Z,3.37
2018-06-02T01:50:00.313Z,4.07
2018-06-02T01:52:27.810Z,5.23
2018-06-02T01:54:55.349Z,5.77
2018-06-02T01:57:22.847Z,4.87
2018-06-02T01:59:51.174Z,4.73
2018-06-02T02:02:18.688Z,5.13
2018-06-02T02:04:46.939Z,5.87
2018-06-02T02:07:14.464Z,4.50
2018-06-02T02:09:42.727Z,6.50
2018-06-02T02:12:10.244Z,5.17
2018-06-02T02:14:38.504Z,4.40
2018-06-02T02:17:06.033Z,4.90
2018-06-02T02:19:34.287Z,5.10
2018-06-02T02:22:01.797Z,6.27
2018-06-02T02:24:29.280Z,6.73
2018-06-02T02:26:56.808Z,4.97
2018-06-02T02:29:24.297Z,6.13
2018-06-02T02:31:51.835Z,5.60
2018-06-02T02:34:19.432Z,5.10
2018-06-02T02:36:47.045Z,5.27
2018-06-02T02:39:14.557Z,5.50
2018-06-02T02:41:42.075Z,4.60
2018-06-02T02:44:09.585Z,6.27
2018-06-02T02:46:37.955Z,7.50
2018-06-02T02:49:05.440Z,6.10
2018-06-02T02:51:33.722Z,5.00
2018-06-02T02:54:01.228Z,5.50
2018-06-02T02:56:28.751Z,5.13
2018-06-02T02:58:56.255Z,5.87
2018-06-02T03:01:23.788Z,4.50
2018-06-02T03:03:51.281Z,4.13
2018-06-02T03:06:19.556Z,4.70
2018-06-02T03:08:47.072Z,5.83
2018-06-02T03:11:15.683Z,5.17
2018-06-02T03:13:43.959Z,4.50
2018-06-02T03:16:11.511Z,4.40
2018-06-02T03:18:39.012Z,4.07
2018-06-02T03:21:06.542Z,4.53
2018-06-02T03:23:34.056Z,5.27
2018-06-02T03:26:01.583Z,4.33
2018-06-02T03:28:29.159Z,4.20
2018-06-02T03:30:56.672Z,4.67
2018-06-02T03:33:24.230Z,3.60
2018-06-02T03:35:53.232Z,4.80
2018-06-02T03:38:20.742Z,5.50
2018-06-02T03:40:48.222Z,4.10
2018-06-02T03:43:16.526Z,5.33
2018-06-02T03:45:44.829Z,4.77
2018-06-02T03:48:13.116Z,4.50
2018-06-02T03:50:40.603Z,4.03
2018-06-02T03:53:08.118Z,4.43
2018-06-02T03:55:35.617Z,5.70
2018-06-02T03:58:03.134Z,7.23
2018-06-02T04:00:30.732Z,8.40
2018-06-02T04:02:58.322Z,11.30
2018-06-02T04:05:25.806Z,8.57
2018-06-02T04:07:54.079Z,8.43
2018-06-02T04:10:21.600Z,8.53
2018-06-02T04:12:49.986Z,7.37
2018-06-02T04:15:17.520Z,7.77
2018-06-02T04:17:45.026Z,6.87
2018-06-02T04:20:12.502Z,6.40
2018-06-02T04:22:40.055Z,7.73
2018-06-02T04:25:08.331Z,7.47
2018-06-02T04:27:35.913Z,7.53
2018-06-02T04:30:03.487Z,9.23
2018-06-02T04:32:31.001Z,7.77
2018-06-02T04:34:59.249Z,6.03
2018-06-02T04:37:26.750Z,5.40
2018-06-02T04:39:54.235Z,5.70
2018-06-02T04:42:21.878Z,7.50
2018-06-02T04:44:49.424Z,5.73
2018-06-02T04:47:17.008Z,5.53
2018-06-02T04:49:45.271Z,7.33
2018-06-02T04:52:12.775Z,7.00
2018-06-02T04:54:40.259Z,7.37
2018-06-02T04:57:07.773Z,6.10
2018-06-02T04:59:36.026Z,5.80
2018-06-02T05:02:03.506Z,16.47
2018-06-02T05:04:31.121Z,8.40
2018-06-02T05:06:59.291Z,7.73
2018-06-02T05:09:26.809Z,9.53
2018-06-02T05:11:54.300Z,10.83
2018-06-02T05:14:22.588Z,10.03
2018-06-02T05:16:50.075Z,10.50
2018-06-02T05:19:17.586Z,10.73
2018-06-02T05:21:45.079Z,8.33
2018-06-02T05:24:12.620Z,7.40
2018-06-02T05:26:40.108Z,7.10
2018-06-02T05:29:07.662Z,7.33
2018-06-02T05:31:35.140Z,6.67
2018-06-02T05:34:02.762Z,5.72
2018-06-02T05:36:30.257Z,5.20
2018-06-02T05:38:58.538Z,5.63
2018-06-02T05:41:26.118Z,4.65
2018-06-02T05:43:53.631Z,4.40
2018-06-02T05:46:21.883Z,4.00
2018-06-02T05:48:49.393Z,3.75
2018-06-02T05:51:16.875Z,7.50
2018-06-02T05:53:44.449Z,8.07
2018-06-02T05:56:11.947Z,9.27
2018-06-02T05:58:39.524Z,8.63
2018-06-02T06:01:07.026Z,7.32
2018-06-02T06:03:34.598Z,7.68
2018-06-02T06:06:02.082Z,8.38
2018-06-02T06:08:29.596Z,9.90
2018-06-02T06:10:57.085Z,6.60
2018-06-02T06:13:24.604Z,10.30
2018-06-02T06:15:52.103Z,7.62
2018-06-02T06:18:19.628Z,6.62
2018-06-02T06:20:48.070Z,6.80
2018-06-02T06:23:15.606Z,8.13
2018-06-02T06:25:43.889Z,9.80
2018-06-02T06:28:12.182Z,6.55
2018-06-02T06:30:39.666Z,5.22
2018-06-02T06:33:07.203Z,7.93
2018-06-02T06:35:34.715Z,6.22
2018-06-02T06:38:02.208Z,4.65
2018-06-02T06:40:29.798Z,4.97
2018-06-02T06:42:57.296Z,7.78
2018-06-02T06:45:25.579Z,6.43
2018-06-02T06:47:53.835Z,5.53
2018-06-02T06:50:21.368Z,5.68
2018-06-02T06:52:48.961Z,7.05
2018-06-02T06:55:17.239Z,6.65
2018-06-02T06:57:44.789Z,8.68
2018-06-02T07:00:12.323Z,10.63
2018-06-02T07:02:39.897Z,5.70
2018-06-02T07:05:07.488Z,5.80
2018-06-02T07:07:34.982Z,5.68
2018-06-02T07:10:02.510Z,8.15
2018-06-02T07:12:30.006Z,6.28
2018-06-02T07:14:57.524Z,7.43
2018-06-02T07:17:25.019Z,5.72
2018-06-02T07:19:52.527Z,5.10
2018-06-02T07:22:20.019Z,6.00
2018-06-02T07:24:47.543Z,4.82
2018-06-02T07:27:15.063Z,4.28
2018-06-02T07:29:43.450Z,3.60
2018-06-02T07:32:10.940Z,5.05
2018-06-02T07:34:39.219Z,5.97
2018-06-02T07:37:06.823Z,6.07
2018-06-02T07:39:35.135Z,6.12
2018-06-02T07:42:03.383Z,7.75
2018-06-02T07:44:31.028Z,8.50
2018-06-02T07:46:59.303Z,8.60
2018-06-02T07:49:26.899Z,11.82
2018-06-02T07:51:54.403Z,10.43
2018-06-02T07:54:21.952Z,11.10
2018-06-02T07:56:49.508Z,11.77
2018-06-02T07:59:17.039Z,12.95
2018-06-02T08:01:45.422Z,12.90
2018-06-02T08:04:13.037Z,13.02
2018-06-02T08:06:41.337Z,12.18
2018-06-02T08:09:09.628Z,13.25
2018-06-02T08:11:37.946Z,12.93
2018-06-02T08:14:06.325Z,12.20
2018-06-02T08:16:34.653Z,10.90
2018-06-02T08:19:02.905Z,10.40
2018-06-02T08:21:30.434Z,12.25
2018-06-02T08:23:58.988Z,10.88
2018-06-02T08:26:26.511Z,11.10
2018-06-02T08:28:54.807Z,11.93
2018-06-02T08:31:22.355Z,10.32
2018-06-02T08:33:49.903Z,11.00
2018-06-02T08:36:18.193Z,8.80
2018-06-02T08:38:46.468Z,7.30
2018-06-02T08:41:13.997Z,6.78
2018-06-02T08:43:41.649Z,8.00
2018-06-02T08:46:09.202Z,7.10
2018-06-02T08:48:36.709Z,5.93
2018-06-02T08:51:04.234Z,6.70
2018-06-02T08:53:31.743Z,6.90
2018-06-02T08:55:59.284Z,4.35
2018-06-02T08:58:27.571Z,6.62
2018-06-02T09:00:55.191Z,4.62
2018-06-02T09:03:22.710Z,6.53
2018-06-02T09:05:50.367Z,5.00
2018-06-02T09:08:17.899Z,3.60
2018-06-02T09:10:45.421Z,3.58
2018-06-02T09:13:12.923Z,3.12
2018-06-02T09:15:40.482Z,4.22
2018-06-02T09:18:07.964Z,4.93
2018-06-02T09:20:36.294Z,3.72
2018-06-02T09:23:03.782Z,3.37
2018-06-02T09:25:31.298Z,3.33
2018-06-02T09:27:58.848Z,3.40
2018-06-02T09:30:27.259Z,3.03
2018-06-02T09:32:54.787Z,3.97
2018-06-02T09:35:23.810Z,2.65
2018-06-02T09:37:51.398Z,3.30
2018-06-02T09:40:19.673Z,2.67
2018-06-02T09:42:47.225Z,2.90
2018-06-02T09:45:14.696Z,3.42
2018-06-02T09:47:42.815Z,3.42
2018-06-02T09:50:10.368Z,3.70
2018-06-02T09:52:37.876Z,3.30
2018-06-02T09:55:05.383Z,3.60
2018-06-02T09:57:32.907Z,3.40
2018-06-02T10:00:01.188Z,3.60
2018-06-02T10:02:28.697Z,3.53
2018-06-02T10:04:56.963Z,4.78
2018-06-02T10:07:24.498Z,3.97
2018-06-02T10:09:52.019Z,3.10
2018-06-02T10:12:19.631Z,3.10
2018-06-02T10:14:47.210Z,3.08
2018-06-02T10:17:14.727Z,4.00
2018-06-02T10:19:42.299Z,3.37
2018-06-02T10:22:10.586Z,3.78
2018-06-02T10:24:38.880Z,3.80
2018-06-02T10:27:06.399Z,3.00
2018-06-02T10:29:33.915Z,2.75
2018-06-02T10:32:01.433Z,2.28
2018-06-02T10:34:29.756Z,2.87
2018-06-02T10:36:58.034Z,2.78
2018-06-02T10:39:25.551Z,1.90
2018-06-02T10:41:53.125Z,1.90
2018-06-02T10:44:21.425Z,2.30
2018-06-02T10:46:48.959Z,4.47
2018-06-02T10:49:16.459Z,2.40
2018-06-02T10:51:43.991Z,2.60
2018-06-02T10:54:11.605Z,1.95
2018-06-02T10:56:39.351Z,2.37
2018-06-02T10:59:06.875Z,2.25
2018-06-02T11:01:34.413Z,3.05
2018-06-02T11:04:02.722Z,2.50
2018-06-02T11:06:31.454Z,2.20
2018-06-02T11:08:58.990Z,3.12
2018-06-02T11:11:26.454Z,2.58
2018-06-02T11:13:53.984Z,2.85
2018-06-02T11:16:22.325Z,2.70
2018-06-02T11:18:49.834Z,3.53
2018-06-02T11:21:17.323Z,2.50
2018-06-02T11:23:45.603Z,3.30
2018-06-02T11:26:13.127Z,2.95
2018-06-02T11:28:41.432Z,3.20
2018-06-02T11:31:09.738Z,2.70
2018-06-02T11:33:38.034Z,2.80
2018-06-02T11:36:06.328Z,2.47
2018-06-02T11:38:34.621Z,2.37
2018-06-02T11:41:02.114Z,2.72
2018-06-02T11:43:30.404Z,2.25
2018-06-02T11:45:57.903Z,2.12
2018-06-02T11:48:26.213Z,2.50
2018-06-02T11:50:54.519Z,2.65
2018-06-02T11:53:22.799Z,2.35
2018-06-02T11:55:50.324Z,1.50
2018-06-02T11:58:17.872Z,2.55
2018-06-02T12:00:46.166Z,2.20
2018-06-02T12:03:14.451Z,3.10
2018-06-02T12:05:41.952Z,3.00
2018-06-02T12:08:10.244Z,1.90
2018-06-02T12:10:39.251Z,1.67
2018-06-02T12:13:06.784Z,3.20
2018-06-02T12:15:34.290Z,2.78
2018-06-02T12:18:02.073Z,2.60
2018-06-02T12:20:29.627Z,2.15
2018-06-02T12:22:57.136Z,1.62
2018-06-02T12:25:24.699Z,1.45
2018-06-02T12:27:52.978Z,1.52
2018-06-02T12:30:20.564Z,1.55
2018-06-02T12:32:48.091Z,2.35
2018-06-02T12:35:16.219Z,2.03
2018-06-02T12:37:43.784Z,2.45
2018-06-02T12:40:11.292Z,1.67
2018-06-02T12:42:38.796Z,2.42
2018-06-02T12:45:06.317Z,1.77
2018-06-02T12:47:33.828Z,1.95
2018-06-02T12:50:01.340Z,1.50
2018-06-02T12:52:28.830Z,1.73
2018-06-02T12:54:56.359Z,1.80
2018-06-02T12:57:23.865Z,2.00
2018-06-02T12:59:51.375Z,2.25
2018-06-02T13:02:20.402Z,1.52
2018-06-02T13:04:47.934Z,1.48
2018-06-02T13:07:15.453Z,1.30
2018-06-02T13:09:44.494Z,1.52
2018-06-02T13:12:12.760Z,3.17
2018-06-02T13:14:40.310Z,2.83
2018-06-02T13:17:07.811Z,2.17
2018-06-02T13:19:35.330Z,1.20
2018-06-02T13:22:02.959Z,1.75
2018-06-02T13:24:30.525Z,1.30
2018-06-02T13:26:58.785Z,1.40
2018-06-02T13:29:26.293Z,2.00
2018-06-02T13:31:54.617Z,2.83
2018-06-02T13:34:22.898Z,1.70
2018-06-02T13:36:50.412Z,1.80
2018-06-02T13:39:17.976Z,1.40
2018-06-02T13:41:46.234Z,1.52
2018-06-02T13:44:13.846Z,1.42
2018-06-02T13:46:41.376Z,1.23
2018-06-02T13:49:08.939Z,1.92
2018-06-02T13:51:37.487Z,1.73
2018-06-02T13:54:05.011Z,1.85
2018-06-02T13:56:32.509Z,1.83
2018-06-02T13:59:00.794Z,1.70
2018-06-02T14:01:28.491Z,1.50
2018-06-02T14:03:56.773Z,3.10
2018-06-02T14:06:24.280Z,1.75
2018-06-02T14:08:52.566Z,1.70
2018-06-02T14:11:20.063Z,1.75
2018-06-02T14:13:48.371Z,1.65
2018-06-02T14:16:16.679Z,1.50
2018-06-02T14:18:44.238Z,2.80
2018-06-02T14:21:11.738Z,2.15
2018-06-02T14:23:39.990Z,2.78
2018-06-02T14:26:07.619Z,2.25
2018-06-02T14:28:35.883Z,1.73
2018-06-02T14:31:03.419Z,2.35
2018-06-02T14:33:30.917Z,1.85
2018-06-02T14:35:58.433Z,1.42
2018-06-02T14:38:25.923Z,1.70
2018-06-02T14:40:53.431Z,1.58
2018-06-02T14:43:20.918Z,1.40
2018-06-02T14:45:49.230Z,2.45
2018-06-02T14:48:17.483Z,2.08
2018-06-02T14:50:45.012Z,2.12
2018-06-02T14:53:12.520Z,1.50
2018-06-02T14:55:40.038Z,2.05
2018-06-02T14:58:07.665Z,1.87
2018-06-02T15:00:35.947Z,2.85
2018-06-02T15:03:03.559Z,1.90
2018-06-02T15:05:31.122Z,2.03
2018-06-02T15:07:58.707Z,2.00
2018-06-02T15:10:27.011Z,1.95
2018-06-02T15:12:55.284Z,2.30
2018-06-02T15:15:22.801Z,2.40
2018-06-02T15:17:51.084Z,2.08
2018-06-02T15:20:18.647Z,1.90
2018-06-02T15:22:46.150Z,2.00
2018-06-02T15:25:14.451Z,2.95
2018-06-02T15:27:41.930Z,2.05
2018-06-02T15:30:11.986Z,1.83
2018-06-02T15:32:40.256Z,2.05
2018-06-02T15:35:07.779Z,1.90
2018-06-02T15:37:35.294Z,2.67
2018-06-02T15:40:02.847Z,2.50
2018-06-02T15:42:30.352Z,2.83
2018-06-02T15:44:57.873Z,3.00
2018-06-02T15:47:25.363Z,2.90
2018-06-02T15:49:52.869Z,2.80
2018-06-02T15:52:20.386Z,2.90
2018-06-02T15:54:47.918Z,3.37
2018-06-02T15:57:15.451Z,3.97
2018-06-02T15:59:42.968Z,2.90
2018-06-02T16:02:10.480Z,3.03
2018-06-02T16:04:38.744Z,3.40
2018-06-02T16:07:06.271Z,2.28
2018-06-02T16:09:34.590Z,2.30
2018-06-02T16:12:02.895Z,3.10
2018-06-02T16:14:31.195Z,5.18
2018-06-02T16:16:58.731Z,5.32
2018-06-02T16:19:26.212Z,4.68
2018-06-02T16:21:53.778Z,3.50
2018-06-02T16:24:21.240Z,2.35
2018-06-02T16:26:48.756Z,2.20
2018-06-02T16:29:16.246Z,2.67
2018-06-02T16:31:43.763Z,2.53
2018-06-02T16:34:11.270Z,2.50
2018-06-02T16:36:38.787Z,3.08
2018-06-02T16:39:06.274Z,2.65
2018-06-02T16:41:33.891Z,2.85
2018-06-02T16:44:02.152Z,2.80
2018-06-02T16:46:29.694Z,3.08
2018-06-02T16:48:57.967Z,2.72
2018-06-02T16:51:25.477Z,2.37
2018-06-02T16:53:53.756Z,2.65
2018-06-02T16:56:21.259Z,2.50
2018-06-02T16:58:49.530Z,1.85
2018-06-02T17:01:17.067Z,3.28
2018-06-02T17:03:44.563Z,2.80
2018-06-02T17:06:12.103Z,2.65
2018-06-02T17:08:40.387Z,3.87
2018-06-02T17:11:07.901Z,2.50
2018-06-02T17:13:36.151Z,2.20
2018-06-02T17:16:03.693Z,2.90
2018-06-02T17:18:31.232Z,2.55
2018-06-02T17:20:58.732Z,2.60
2018-06-02T17:23:26.270Z,2.60
2018-06-02T17:25:53.765Z,2.58
2018-06-02T17:28:21.277Z,2.42
2018-06-02T17:30:48.815Z,4.28
2018-06-02T17:33:16.355Z,3.62
2018-06-02T17:35:44.627Z,18.85
2018-06-02T17:38:12.150Z,2.95
2018-06-02T17:40:40.457Z,2.53
2018-06-02T17:43:08.752Z,3.10
2018-06-02T17:45:37.030Z,2.87
2018-06-02T17:48:04.609Z,2.45
2018-06-02T17:50:32.114Z,3.40
2018-06-02T17:52:59.697Z,2.20
2018-06-02T17:55:27.226Z,3.25
2018-06-02T17:57:54.738Z,2.17
2018-06-02T18:00:22.227Z,2.40
2018-06-02T18:02:49.753Z,2.30
2018-06-02T18:05:18.187Z,2.55
2018-06-02T18:07:45.718Z,2.12
2018-06-02T18:10:13.214Z,8.13
2018-06-02T18:12:41.631Z,3.90
2018-06-02T18:15:09.923Z,3.03
2018-06-02T18:17:38.232Z,2.40
2018-06-02T18:20:06.490Z,2.42
2018-06-02T18:22:34.088Z,2.30
2018-06-02T18:25:01.598Z,4.05
2018-06-02T18:27:29.947Z,2.37
2018-06-02T18:29:57.456Z,2.10
2018-06-02T18:32:25.022Z,2.35
2018-06-02T18:34:52.648Z,2.70
2018-06-02T18:37:20.987Z,2.37
2018-06-02T18:39:48.503Z,2.35
2018-06-02T18:42:15.991Z,3.83
2018-06-02T18:44:43.613Z,2.40
2018-06-02T18:47:12.119Z,2.58
2018-06-02T18:49:40.403Z,4.70
2018-06-02T18:52:07.904Z,3.08
2018-06-02T18:54:36.182Z,2.37
2018-06-02T18:57:03.670Z,2.53
2018-06-02T18:59:31.194Z,3.25
2018-06-02T19:01:58.699Z,2.90
2018-06-02T19:04:26.207Z,2.97
2018-06-02T19:06:53.700Z,2.60
2018-06-02T19:09:21.386Z,14.15
2018-06-02T19:11:48.884Z,9.18
2018-06-02T19:14:17.194Z,4.68
2018-06-02T19:16:44.792Z,3.05
2018-06-02T19:19:12.324Z,3.40
2018-06-02T19:21:39.915Z,4.68
2018-06-02T19:24:07.436Z,3.95
2018-06-02T19:26:34.923Z,3.10
2018-06-02T19:29:02.439Z,3.22
2018-06-02T19:31:29.918Z,4.22
2018-06-02T19:33:57.435Z,4.40
2018-06-02T19:36:24.930Z,3.50
2018-06-02T19:38:52.440Z,3.17
2018-06-02T19:41:19.978Z,3.17
2018-06-02T19:43:47.523Z,3.08
2018-06-02T19:46:15.076Z,4.00
2018-06-02T19:48:43.590Z,3.00
2018-06-02T19:51:11.841Z,2.47
2018-06-02T19:53:39.365Z,3.47
2018-06-02T19:56:07.630Z,2.83
2018-06-02T19:58:35.155Z,3.00
2018-06-02T20:01:03.476Z,2.67
2018-06-02T20:03:31.006Z,4.12
2018-06-02T20:05:58.498Z,5.85
2018-06-02T20:08:26.026Z,10.15
2018-06-02T20:10:53.750Z,19.58
2018-06-02T20:13:21.259Z,4.43
2018-06-02T20:15:49.210Z,3.00
2018-06-02T20:18:16.691Z,3.50
2018-06-02T20:20:44.440Z,4.32
2018-06-02T20:23:12.702Z,4.47
2018-06-02T20:25:40.336Z,19.67
2018-06-02T20:28:07.851Z,19.27
2018-06-02T20:30:35.372Z,19.23
2018-06-02T20:33:02.883Z,23.27
2018-06-02T20:35:31.197Z,14.25
2018-06-02T20:37:58.683Z,5.20
2018-06-02T20:40:26.253Z,6.18
2018-06-02T20:42:54.512Z,10.52
2018-06-02T20:45:22.133Z,5.03
2018-06-02T20:47:50.400Z,4.30
2018-06-02T20:50:17.951Z,6.07
2018-06-02T20:52:45.441Z,3.72
2018-06-02T20:55:13.091Z,4.95
2018-06-02T20:57:41.347Z,3.17
2018-06-02T21:00:08.870Z,4.20
2018-06-02T21:02:37.491Z,5.18
2018-06-02T21:05:05.768Z,5.97
2018-06-02T21:07:33.272Z,8.02
2018-06-02T21:10:01.563Z,6.82
2018-06-02T21:12:29.834Z,4.57
2018-06-02T21:14:57.471Z,5.37
2018-06-02T21:17:25.056Z,4.40
2018-06-02T21:19:52.570Z,4.40
2018-06-02T21:22:20.067Z,6.62
2018-06-02T21:24:47.571Z,4.72
2018-06-02T21:27:15.261Z,4.35
2018-06-02T21:29:43.552Z,3.40
2018-06-02T21:32:12.604Z,3.60
2018-06-02T21:34:40.888Z,5.22
2018-06-02T21:37:08.411Z,5.22
2018-06-02T21:39:35.953Z,5.80
2018-06-02T21:42:03.444Z,5.75
2018-06-02T21:44:30.927Z,5.37
2018-06-02T21:46:58.468Z,5.05
2018-06-02T21:49:25.985Z,5.45
2018-06-02T21:51:53.511Z,6.20
2018-06-02T21:54:21.024Z,5.53
2018-06-02T21:56:48.559Z,5.43
2018-06-02T21:59:16.830Z,4.43
2018-06-02T22:01:44.352Z,5.28
2018-06-02T22:04:11.841Z,5.78
2018-06-02T22:06:39.351Z,5.43
2018-06-02T22:09:06.850Z,4.65
2018-06-02T22:11:34.461Z,5.57
2018-06-02T22:14:02.749Z,5.25
2018-06-02T22:16:30.264Z,7.00
2018-06-02T22:18:58.517Z,5.97
2018-06-02T22:21:26.029Z,4.47
2018-06-02T22:23:53.631Z,5.87
2018-06-02T22:26:57.056Z,5.80
2018-06-02T22:29:25.409Z,3.77
2018-06-02T22:31:53.831Z,3.77
2018-06-02T22:34:22.231Z,4.92
2018-06-02T22:36:50.622Z,4.67
2018-06-02T22:39:19.009Z,6.42
2018-06-02T22:41:47.464Z,5.30
2018-06-02T22:44:15.870Z,6.13
2018-06-02T22:46:44.306Z,7.80
2018-06-02T22:49:12.684Z,6.07
2018-06-02T22:51:52.349Z,6.33
2018-06-02T22:54:20.839Z,7.30
2018-06-02T22:56:49.266Z,8.13
2018-06-02T22:59:17.690Z,6.00
2018-06-02T23:01:46.217Z,6.80
2018-06-02T23:04:14.617Z,8.58
2018-06-02T23:06:43.110Z,6.80
2018-06-02T23:09:11.667Z,8.75
2018-06-02T23:11:40.047Z,11.43
2018-06-02T23:14:08.456Z,9.97
2018-06-02T23:16:37.033Z,8.27
2018-06-02T23:19:05.359Z,5.90
2018-06-02T23:21:33.804Z,6.97
2018-06-02T23:24:02.176Z,5.17
2018-06-02T23:26:30.515Z,5.77
2018-06-02T23:28:58.888Z,4.90
2018-06-02T23:31:27.246Z,4.83
2018-06-02T23:33:55.591Z,5.63
2018-06-02T23:36:23.966Z,7.83
2018-06-02T23:38:52.419Z,8.23
2018-06-02T23:41:21.273Z,6.17
2018-06-02T23:43:49.865Z,5.93
2018-06-02T23:46:18.396Z,4.73
2018-06-02T23:48:46.775Z,5.50
2018-06-02T23:51:15.216Z,5.33
2018-06-02T23:53:43.610Z,6.05
2018-06-02T23:56:12.020Z,4.83
2018-06-02T23:58:40.556Z,6.30
